sensor_id;sensor_type;location;lat;lon;timestamp;P1;durP1;ratioP1;P2;durP2;ratioP2
40284;SDS011;25997;50.214;19.354;2023-03-01T00:00:52;133.93;;;81.70;;
40284;SDS011;25997;50.214;19.354;2023-03-01T00:03:55;121.55;;;76.13;;
40284;SDS011;25997;50.214;19.354;2023-03-01T00:06:58;100.15;;;66.35;;
40284;SDS011;25997;50.214;19.354;2023-03-01T00:10:01;95.47;;;56.78;;
40284;SDS011;25997;50.214;19.354;2023-03-01T00:13:04;85.72;;;57.92;;
40284;SDS011;25997;50.214;19.354;2023-03-01T00:16:09;76.25;;;48.33;;
40284;SDS011;25997;50.214;19.354;2023-03-01T00:19:14;69.07;;;44.75;;
40284;SDS011;25997;50.214;19.354;2023-03-01T00:22:17;57.30;;;37.65;;
40284;SDS011;25997;50.214;19.354;2023-03-01T00:25:20;57.70;;;35.70;;
40284;SDS011;25997;50.214;19.354;2023-03-01T00:28:22;45.38;;;31.05;;
40284;SDS011;25997;50.214;19.354;2023-03-01T00:31:27;42.75;;;27.90;;
40284;SDS011;25997;50.214;19.354;2023-03-01T00:34:31;48.83;;;31.10;;
40284;SDS011;25997;50.214;19.354;2023-03-01T00:37:34;48.15;;;31.90;;
40284;SDS011;25997;50.214;19.354;2023-03-01T00:40:36;47.63;;;31.40;;
40284;SDS011;25997;50.214;19.354;2023-03-01T00:43:39;52.15;;;32.80;;
40284;SDS011;25997;50.214;19.354;2023-03-01T00:46:44;49.13;;;35.13;;
40284;SDS011;25997;50.214;19.354;2023-03-01T00:49:46;90.68;;;59.42;;
40284;SDS011;25997;50.214;19.354;2023-03-01T00:52:51;150.95;;;87.65;;
40284;SDS011;25997;50.214;19.354;2023-03-01T00:55:56;121.00;;;76.25;;
40284;SDS011;25997;50.214;19.354;2023-03-01T00:58:59;108.63;;;73.18;;
40284;SDS011;25997;50.214;19.354;2023-03-01T01:02:03;102.68;;;70.18;;
40284;SDS011;25997;50.214;19.354;2023-03-01T01:05:06;106.63;;;68.55;;
40284;SDS011;25997;50.214;19.354;2023-03-01T01:08:09;101.88;;;66.75;;
40284;SDS011;25997;50.214;19.354;2023-03-01T01:11:12;118.78;;;77.80;;
40284;SDS011;25997;50.214;19.354;2023-03-01T01:14:15;90.90;;;62.78;;
40284;SDS011;25997;50.214;19.354;2023-03-01T01:17:20;69.28;;;44.80;;
40284;SDS011;25997;50.214;19.354;2023-03-01T01:20:22;83.85;;;53.88;;
40284;SDS011;25997;50.214;19.354;2023-03-01T01:23:25;88.55;;;58.72;;
40284;SDS011;25997;50.214;19.354;2023-03-01T01:26:28;123.57;;;75.95;;
40284;SDS011;25997;50.214;19.354;2023-03-01T01:29:32;102.68;;;66.28;;
40284;SDS011;25997;50.214;19.354;2023-03-01T01:32:36;92.30;;;60.50;;
40284;SDS011;25997;50.214;19.354;2023-03-01T01:35:39;89.25;;;58.13;;
40284;SDS011;25997;50.214;19.354;2023-03-01T01:38:41;78.30;;;50.65;;
40284;SDS011;25997;50.214;19.354;2023-03-01T01:41:44;84.63;;;49.20;;
40284;SDS011;25997;50.214;19.354;2023-03-01T01:44:47;66.60;;;44.15;;
40284;SDS011;25997;50.214;19.354;2023-03-01T01:47:51;71.55;;;44.72;;
40284;SDS011;25997;50.214;19.354;2023-03-01T01:50:57;61.05;;;40.28;;
40284;SDS011;25997;50.214;19.354;2023-03-01T01:54:02;55.30;;;37.75;;
40284;SDS011;25997;50.214;19.354;2023-03-01T01:57:06;57.05;;;37.75;;
40284;SDS011;25997;50.214;19.354;2023-03-01T02:00:13;55.05;;;37.35;;
40284;SDS011;25997;50.214;19.354;2023-03-01T02:03:22;64.45;;;44.20;;
40284;SDS011;25997;50.214;19.354;2023-03-01T02:06:29;70.85;;;47.15;;
40284;SDS011;25997;50.214;19.354;2023-03-01T02:09:35;64.80;;;43.63;;
40284;SDS011;25997;50.214;19.354;2023-03-01T02:12:38;62.88;;;42.83;;
40284;SDS011;25997;50.214;19.354;2023-03-01T02:15:41;62.33;;;39.05;;
40284;SDS011;25997;50.214;19.354;2023-03-01T02:18:46;61.00;;;39.22;;
40284;SDS011;25997;50.214;19.354;2023-03-01T02:21:50;66.18;;;44.72;;
40284;SDS011;25997;50.214;19.354;2023-03-01T02:25:02;68.20;;;44.35;;
40284;SDS011;25997;50.214;19.354;2023-03-01T02:28:22;95.22;;;61.72;;
40284;SDS011;25997;50.214;19.354;2023-03-01T02:31:27;202.57;;;113.78;;
40284;SDS011;25997;50.214;19.354;2023-03-01T02:34:46;120.07;;;76.18;;
40284;SDS011;25997;50.214;19.354;2023-03-01T02:37:48;93.20;;;61.00;;
40284;SDS011;25997;50.214;19.354;2023-03-01T02:40:51;68.60;;;43.45;;
40284;SDS011;25997;50.214;19.354;2023-03-01T02:43:57;61.92;;;41.15;;
40284;SDS011;25997;50.214;19.354;2023-03-01T02:47:00;58.08;;;38.30;;
40284;SDS011;25997;50.214;19.354;2023-03-01T02:50:11;56.75;;;37.50;;
40284;SDS011;25997;50.214;19.354;2023-03-01T02:53:27;58.60;;;37.72;;
40284;SDS011;25997;50.214;19.354;2023-03-01T02:56:37;56.83;;;33.70;;
40284;SDS011;25997;50.214;19.354;2023-03-01T02:59:41;49.85;;;30.58;;
40284;SDS011;25997;50.214;19.354;2023-03-01T03:02:45;74.72;;;43.67;;
40284;SDS011;25997;50.214;19.354;2023-03-01T03:05:52;90.03;;;59.13;;
40284;SDS011;25997;50.214;19.354;2023-03-01T03:08:54;110.57;;;74.00;;
40284;SDS011;25997;50.214;19.354;2023-03-01T03:11:57;101.60;;;65.00;;
40284;SDS011;25997;50.214;19.354;2023-03-01T03:15:01;102.72;;;65.70;;
40284;SDS011;25997;50.214;19.354;2023-03-01T03:18:10;99.43;;;60.28;;
40284;SDS011;25997;50.214;19.354;2023-03-01T03:21:15;70.38;;;46.22;;
40284;SDS011;25997;50.214;19.354;2023-03-01T03:24:18;73.68;;;48.22;;
40284;SDS011;25997;50.214;19.354;2023-03-01T03:27:21;75.60;;;48.78;;
40284;SDS011;25997;50.214;19.354;2023-03-01T03:30:26;56.67;;;36.63;;
40284;SDS011;25997;50.214;19.354;2023-03-01T03:33:30;55.08;;;37.58;;
40284;SDS011;25997;50.214;19.354;2023-03-01T03:36:32;47.97;;;33.28;;
40284;SDS011;25997;50.214;19.354;2023-03-01T03:39:35;51.03;;;33.53;;
40284;SDS011;25997;50.214;19.354;2023-03-01T03:42:37;65.82;;;44.55;;
40284;SDS011;25997;50.214;19.354;2023-03-01T03:45:43;93.45;;;62.88;;
40284;SDS011;25997;50.214;19.354;2023-03-01T03:48:46;111.82;;;78.22;;
40284;SDS011;25997;50.214;19.354;2023-03-01T03:51:49;105.53;;;68.38;;
40284;SDS011;25997;50.214;19.354;2023-03-01T03:54:52;90.22;;;59.92;;
40284;SDS011;25997;50.214;19.354;2023-03-01T03:57:54;78.05;;;52.47;;
40284;SDS011;25997;50.214;19.354;2023-03-01T04:01:04;70.00;;;45.67;;
40284;SDS011;25997;50.214;19.354;2023-03-01T04:04:09;71.05;;;50.00;;
40284;SDS011;25997;50.214;19.354;2023-03-01T04:07:12;59.90;;;40.00;;
40284;SDS011;25997;50.214;19.354;2023-03-01T04:10:15;68.68;;;49.83;;
40284;SDS011;25997;50.214;19.354;2023-03-01T04:13:19;81.80;;;60.92;;
40284;SDS011;25997;50.214;19.354;2023-03-01T04:16:24;63.90;;;47.28;;
40284;SDS011;25997;50.214;19.354;2023-03-01T04:19:27;62.60;;;45.10;;
40284;SDS011;25997;50.214;19.354;2023-03-01T04:22:30;57.10;;;43.42;;
40284;SDS011;25997;50.214;19.354;2023-03-01T04:25:32;52.28;;;36.47;;
40284;SDS011;25997;50.214;19.354;2023-03-01T04:28:36;46.13;;;34.13;;
40284;SDS011;25997;50.214;19.354;2023-03-01T04:31:42;48.90;;;34.50;;
40284;SDS011;25997;50.214;19.354;2023-03-01T04:34:44;50.70;;;36.47;;
40284;SDS011;25997;50.214;19.354;2023-03-01T04:37:46;43.75;;;30.90;;
40284;SDS011;25997;50.214;19.354;2023-03-01T04:40:49;47.58;;;31.95;;
40284;SDS011;25997;50.214;19.354;2023-03-01T04:43:51;43.72;;;30.27;;
40284;SDS011;25997;50.214;19.354;2023-03-01T04:46:55;43.15;;;30.17;;
40284;SDS011;25997;50.214;19.354;2023-03-01T04:49:58;37.25;;;26.65;;
40284;SDS011;25997;50.214;19.354;2023-03-01T04:53:00;32.08;;;23.88;;
40284;SDS011;25997;50.214;19.354;2023-03-01T04:56:03;40.10;;;28.33;;
40284;SDS011;25997;50.214;19.354;2023-03-01T04:59:06;79.78;;;54.85;;
40284;SDS011;25997;50.214;19.354;2023-03-01T05:02:11;138.40;;;85.88;;
40284;SDS011;25997;50.214;19.354;2023-03-01T05:05:14;144.13;;;88.68;;
40284;SDS011;25997;50.214;19.354;2023-03-01T05:08:17;157.55;;;94.40;;
40284;SDS011;25997;50.214;19.354;2023-03-01T05:11:21;162.77;;;99.97;;
40284;SDS011;25997;50.214;19.354;2023-03-01T05:14:23;140.20;;;92.38;;
40284;SDS011;25997;50.214;19.354;2023-03-01T05:17:27;127.15;;;85.00;;
40284;SDS011;25997;50.214;19.354;2023-03-01T05:20:30;123.68;;;81.10;;
40284;SDS011;25997;50.214;19.354;2023-03-01T05:23:32;136.48;;;89.55;;
40284;SDS011;25997;50.214;19.354;2023-03-01T05:26:36;144.82;;;92.20;;
40284;SDS011;25997;50.214;19.354;2023-03-01T05:29:40;148.57;;;92.90;;
40284;SDS011;25997;50.214;19.354;2023-03-01T05:32:46;149.02;;;94.88;;
40284;SDS011;25997;50.214;19.354;2023-03-01T05:35:53;183.65;;;111.00;;
40284;SDS011;25997;50.214;19.354;2023-03-01T05:38:56;207.93;;;134.50;;
40284;SDS011;25997;50.214;19.354;2023-03-01T05:41:59;165.80;;;112.88;;
40284;SDS011;25997;50.214;19.354;2023-03-01T05:45:03;125.93;;;86.95;;
40284;SDS011;25997;50.214;19.354;2023-03-01T05:48:11;114.43;;;78.75;;
40284;SDS011;25997;50.214;19.354;2023-03-01T05:51:14;136.15;;;82.57;;
40284;SDS011;25997;50.214;19.354;2023-03-01T05:54:18;122.88;;;75.95;;
40284;SDS011;25997;50.214;19.354;2023-03-01T05:57:21;86.28;;;57.65;;
40284;SDS011;25997;50.214;19.354;2023-03-01T06:00:23;42.08;;;29.83;;
40284;SDS011;25997;50.214;19.354;2023-03-01T06:03:27;48.13;;;31.30;;
40284;SDS011;25997;50.214;19.354;2023-03-01T06:06:33;66.55;;;43.80;;
40284;SDS011;25997;50.214;19.354;2023-03-01T06:09:37;157.02;;;109.38;;
40284;SDS011;25997;50.214;19.354;2023-03-01T06:12:40;110.78;;;76.40;;
40284;SDS011;25997;50.214;19.354;2023-03-01T06:15:44;147.65;;;102.43;;
40284;SDS011;25997;50.214;19.354;2023-03-01T06:18:48;169.88;;;114.47;;
40284;SDS011;25997;50.214;19.354;2023-03-01T06:21:50;110.35;;;77.18;;
40284;SDS011;25997;50.214;19.354;2023-03-01T06:24:53;122.93;;;82.13;;
40284;SDS011;25997;50.214;19.354;2023-03-01T06:27:55;103.47;;;71.22;;
40284;SDS011;25997;50.214;19.354;2023-03-01T06:30:58;100.43;;;65.35;;
40284;SDS011;25997;50.214;19.354;2023-03-01T06:34:02;90.22;;;58.65;;
40284;SDS011;25997;50.214;19.354;2023-03-01T06:37:04;77.95;;;50.85;;
40284;SDS011;25997;50.214;19.354;2023-03-01T06:40:08;80.93;;;53.45;;
40284;SDS011;25997;50.214;19.354;2023-03-01T06:43:11;78.22;;;53.40;;
40284;SDS011;25997;50.214;19.354;2023-03-01T06:46:14;95.95;;;58.35;;
40284;SDS011;25997;50.214;19.354;2023-03-01T06:49:18;96.43;;;62.78;;
40284;SDS011;25997;50.214;19.354;2023-03-01T06:52:21;113.80;;;75.38;;
40284;SDS011;25997;50.214;19.354;2023-03-01T06:55:24;85.10;;;54.67;;
40284;SDS011;25997;50.214;19.354;2023-03-01T06:58:27;91.55;;;58.83;;
40284;SDS011;25997;50.214;19.354;2023-03-01T07:01:29;62.38;;;43.38;;
40284;SDS011;25997;50.214;19.354;2023-03-01T07:04:33;52.75;;;38.67;;
40284;SDS011;25997;50.214;19.354;2023-03-01T07:07:36;53.60;;;39.75;;
40284;SDS011;25997;50.214;19.354;2023-03-01T07:10:38;75.22;;;53.03;;
40284;SDS011;25997;50.214;19.354;2023-03-01T07:13:41;137.77;;;109.47;;
40284;SDS011;25997;50.214;19.354;2023-03-01T07:16:43;106.53;;;92.03;;
40284;SDS011;25997;50.214;19.354;2023-03-01T07:19:47;69.80;;;55.10;;
40284;SDS011;25997;50.214;19.354;2023-03-01T07:22:50;69.97;;;46.90;;
40284;SDS011;25997;50.214;19.354;2023-03-01T07:25:52;98.13;;;69.72;;
40284;SDS011;25997;50.214;19.354;2023-03-01T07:28:55;95.10;;;71.28;;
40284;SDS011;25997;50.214;19.354;2023-03-01T07:32:00;101.10;;;72.90;;
40284;SDS011;25997;50.214;19.354;2023-03-01T07:35:04;96.28;;;69.50;;
40284;SDS011;25997;50.214;19.354;2023-03-01T07:38:08;112.00;;;83.75;;
40284;SDS011;25997;50.214;19.354;2023-03-01T07:41:10;86.05;;;58.70;;
40284;SDS011;25997;50.214;19.354;2023-03-01T07:44:13;77.93;;;55.83;;
40284;SDS011;25997;50.214;19.354;2023-03-01T07:47:15;60.55;;;44.67;;
40284;SDS011;25997;50.214;19.354;2023-03-01T07:50:19;47.25;;;33.67;;
40284;SDS011;25997;50.214;19.354;2023-03-01T07:53:22;51.60;;;37.55;;
40284;SDS011;25997;50.214;19.354;2023-03-01T07:56:25;54.47;;;39.95;;
40284;SDS011;25997;50.214;19.354;2023-03-01T07:59:28;97.53;;;66.30;;
40284;SDS011;25997;50.214;19.354;2023-03-01T08:02:30;93.38;;;65.68;;
40284;SDS011;25997;50.214;19.354;2023-03-01T08:05:34;85.05;;;61.40;;
40284;SDS011;25997;50.214;19.354;2023-03-01T08:08:37;87.70;;;61.60;;
40284;SDS011;25997;50.214;19.354;2023-03-01T08:11:39;76.72;;;54.47;;
40284;SDS011;25997;50.214;19.354;2023-03-01T08:14:42;63.25;;;48.83;;
40284;SDS011;25997;50.214;19.354;2023-03-01T08:17:44;63.58;;;45.25;;
40284;SDS011;25997;50.214;19.354;2023-03-01T08:20:48;63.30;;;46.15;;
40284;SDS011;25997;50.214;19.354;2023-03-01T08:23:51;56.13;;;42.70;;
40284;SDS011;25997;50.214;19.354;2023-03-01T08:26:53;58.60;;;42.55;;
40284;SDS011;25997;50.214;19.354;2023-03-01T08:29:56;46.83;;;38.17;;
40284;SDS011;25997;50.214;19.354;2023-03-01T08:32:59;47.80;;;35.17;;
40284;SDS011;25997;50.214;19.354;2023-03-01T08:36:03;44.55;;;32.22;;
40284;SDS011;25997;50.214;19.354;2023-03-01T08:39:08;40.47;;;30.45;;
40284;SDS011;25997;50.214;19.354;2023-03-01T08:42:12;37.33;;;26.52;;
40284;SDS011;25997;50.214;19.354;2023-03-01T08:45:14;36.83;;;26.05;;
40284;SDS011;25997;50.214;19.354;2023-03-01T08:48:18;32.45;;;25.42;;
40284;SDS011;25997;50.214;19.354;2023-03-01T08:51:23;41.08;;;28.05;;
40284;SDS011;25997;50.214;19.354;2023-03-01T08:54:26;31.25;;;23.67;;
40284;SDS011;25997;50.214;19.354;2023-03-01T08:57:29;32.58;;;23.77;;
40284;SDS011;25997;50.214;19.354;2023-03-01T09:00:32;29.85;;;21.77;;
40284;SDS011;25997;50.214;19.354;2023-03-01T09:03:35;29.50;;;21.13;;
40284;SDS011;25997;50.214;19.354;2023-03-01T09:06:39;29.83;;;21.40;;
40284;SDS011;25997;50.214;19.354;2023-03-01T09:09:42;26.52;;;18.23;;
40284;SDS011;25997;50.214;19.354;2023-03-01T09:12:45;26.13;;;19.13;;
40284;SDS011;25997;50.214;19.354;2023-03-01T09:15:47;26.80;;;20.27;;
40284;SDS011;25997;50.214;19.354;2023-03-01T09:18:51;26.20;;;18.23;;
40284;SDS011;25997;50.214;19.354;2023-03-01T09:21:56;23.67;;;16.15;;
40284;SDS011;25997;50.214;19.354;2023-03-01T09:24:59;26.70;;;19.42;;
40284;SDS011;25997;50.214;19.354;2023-03-01T09:28:02;25.20;;;18.90;;
40284;SDS011;25997;50.214;19.354;2023-03-01T09:31:05;28.92;;;22.23;;
40284;SDS011;25997;50.214;19.354;2023-03-01T09:34:08;44.28;;;28.77;;
40284;SDS011;25997;50.214;19.354;2023-03-01T09:37:12;32.42;;;21.58;;
40284;SDS011;25997;50.214;19.354;2023-03-01T09:40:16;33.22;;;22.83;;
40284;SDS011;25997;50.214;19.354;2023-03-01T09:43:21;35.45;;;25.27;;
40284;SDS011;25997;50.214;19.354;2023-03-01T09:46:28;37.03;;;25.48;;
40284;SDS011;25997;50.214;19.354;2023-03-01T09:49:42;43.83;;;30.50;;
40284;SDS011;25997;50.214;19.354;2023-03-01T09:52:59;35.60;;;22.00;;
40284;SDS011;25997;50.214;19.354;2023-03-01T09:56:05;37.72;;;23.75;;
40284;SDS011;25997;50.214;19.354;2023-03-01T09:59:17;34.75;;;22.33;;
40284;SDS011;25997;50.214;19.354;2023-03-01T10:02:28;34.03;;;23.10;;
40284;SDS011;25997;50.214;19.354;2023-03-01T10:05:54;30.65;;;20.77;;
40284;SDS011;25997;50.214;19.354;2023-03-01T10:09:04;30.52;;;21.65;;
40284;SDS011;25997;50.214;19.354;2023-03-01T10:12:08;33.13;;;23.65;;
40284;SDS011;25997;50.214;19.354;2023-03-01T10:15:14;33.05;;;22.98;;
40284;SDS011;25997;50.214;19.354;2023-03-01T10:18:21;31.48;;;22.98;;
40284;SDS011;25997;50.214;19.354;2023-03-01T10:21:28;30.00;;;22.25;;
40284;SDS011;25997;50.214;19.354;2023-03-01T10:24:34;27.65;;;20.02;;
40284;SDS011;25997;50.214;19.354;2023-03-01T10:27:43;24.20;;;18.25;;
40284;SDS011;25997;50.214;19.354;2023-03-01T10:30:51;21.58;;;16.42;;
40284;SDS011;25997;50.214;19.354;2023-03-01T10:33:54;17.58;;;14.90;;
40284;SDS011;25997;50.214;19.354;2023-03-01T10:37:01;24.85;;;20.63;;
40284;SDS011;25997;50.214;19.354;2023-03-01T10:40:12;24.73;;;20.65;;
40284;SDS011;25997;50.214;19.354;2023-03-01T10:43:15;23.52;;;18.55;;
40284;SDS011;25997;50.214;19.354;2023-03-01T10:46:25;19.50;;;16.27;;
40284;SDS011;25997;50.214;19.354;2023-03-01T10:49:29;19.20;;;15.95;;
40284;SDS011;25997;50.214;19.354;2023-03-01T10:52:34;20.00;;;16.35;;
40284;SDS011;25997;50.214;19.354;2023-03-01T10:55:39;22.25;;;17.38;;
40284;SDS011;25997;50.214;19.354;2023-03-01T10:58:57;16.50;;;14.30;;
40284;SDS011;25997;50.214;19.354;2023-03-01T11:02:02;21.87;;;15.70;;
40284;SDS011;25997;50.214;19.354;2023-03-01T11:05:18;17.30;;;13.80;;
40284;SDS011;25997;50.214;19.354;2023-03-01T11:08:34;15.18;;;13.48;;
40284;SDS011;25997;50.214;19.354;2023-03-01T11:11:40;18.50;;;14.80;;
40284;SDS011;25997;50.214;19.354;2023-03-01T11:14:46;18.88;;;14.48;;
40284;SDS011;25997;50.214;19.354;2023-03-01T11:17:49;21.98;;;15.88;;
40284;SDS011;25997;50.214;19.354;2023-03-01T11:20:53;17.30;;;14.05;;
40284;SDS011;25997;50.214;19.354;2023-03-01T11:23:57;14.32;;;12.82;;
40284;SDS011;25997;50.214;19.354;2023-03-01T11:27:06;22.73;;;19.50;;
40284;SDS011;25997;50.214;19.354;2023-03-01T11:30:18;21.55;;;15.13;;
40284;SDS011;25997;50.214;19.354;2023-03-01T11:33:29;17.52;;;14.20;;
40284;SDS011;25997;50.214;19.354;2023-03-01T11:36:40;17.27;;;14.70;;
40284;SDS011;25997;50.214;19.354;2023-03-01T11:39:47;17.55;;;14.63;;
40284;SDS011;25997;50.214;19.354;2023-03-01T11:43:01;16.48;;;13.77;;
40284;SDS011;25997;50.214;19.354;2023-03-01T11:46:21;19.55;;;15.57;;
40284;SDS011;25997;50.214;19.354;2023-03-01T11:49:49;19.17;;;15.38;;
40284;SDS011;25997;50.214;19.354;2023-03-01T11:53:15;17.88;;;14.73;;
40284;SDS011;25997;50.214;19.354;2023-03-01T11:56:31;16.58;;;13.80;;
40284;SDS011;25997;50.214;19.354;2023-03-01T11:59:47;19.83;;;15.98;;
40284;SDS011;25997;50.214;19.354;2023-03-01T12:03:14;18.27;;;14.43;;
40284;SDS011;25997;50.214;19.354;2023-03-01T12:06:35;15.85;;;14.10;;
40284;SDS011;25997;50.214;19.354;2023-03-01T12:13:36;18.67;;;14.13;;
40284;SDS011;25997;50.214;19.354;2023-03-01T12:17:01;22.67;;;17.77;;
40284;SDS011;25997;50.214;19.354;2023-03-01T12:20:20;20.40;;;16.05;;
40284;SDS011;25997;50.214;19.354;2023-03-01T12:23:34;16.58;;;13.05;;
40284;SDS011;25997;50.214;19.354;2023-03-01T12:26:59;19.60;;;14.80;;
40284;SDS011;25997;50.214;19.354;2023-03-01T12:30:22;19.63;;;15.55;;
40284;SDS011;25997;50.214;19.354;2023-03-01T12:33:34;16.33;;;13.93;;
40284;SDS011;25997;50.214;19.354;2023-03-01T12:36:52;19.70;;;14.77;;
40284;SDS011;25997;50.214;19.354;2023-03-01T12:40:19;20.87;;;16.80;;
40284;SDS011;25997;50.214;19.354;2023-03-01T12:43:36;14.98;;;13.38;;
40284;SDS011;25997;50.214;19.354;2023-03-01T12:46:51;16.33;;;14.20;;
40284;SDS011;25997;50.214;19.354;2023-03-01T12:50:05;17.23;;;13.05;;
40284;SDS011;25997;50.214;19.354;2023-03-01T12:53:20;15.10;;;13.52;;
40284;SDS011;25997;50.214;19.354;2023-03-01T12:56:26;101.65;;;89.70;;
40284;SDS011;25997;50.214;19.354;2023-03-01T12:59:31;18.63;;;16.67;;
40284;SDS011;25997;50.214;19.354;2023-03-01T13:02:43;17.67;;;15.30;;
40284;SDS011;25997;50.214;19.354;2023-03-01T13:05:56;19.70;;;15.23;;
40284;SDS011;25997;50.214;19.354;2023-03-01T13:09:11;20.75;;;17.33;;
40284;SDS011;25997;50.214;19.354;2023-03-01T13:19:40;19.98;;;17.88;;
40284;SDS011;25997;50.214;19.354;2023-03-01T13:23:13;17.97;;;15.80;;
40284;SDS011;25997;50.214;19.354;2023-03-01T13:26:26;18.35;;;16.38;;
40284;SDS011;25997;50.214;19.354;2023-03-01T13:29:28;18.85;;;16.27;;
40284;SDS011;25997;50.214;19.354;2023-03-01T13:32:46;18.70;;;16.73;;
40284;SDS011;25997;50.214;19.354;2023-03-01T13:35:48;20.52;;;16.63;;
40284;SDS011;25997;50.214;19.354;2023-03-01T13:38:56;18.08;;;15.32;;
40284;SDS011;25997;50.214;19.354;2023-03-01T13:41:59;19.70;;;16.85;;
40284;SDS011;25997;50.214;19.354;2023-03-01T13:45:02;18.83;;;16.52;;
40284;SDS011;25997;50.214;19.354;2023-03-01T13:48:11;18.25;;;15.95;;
40284;SDS011;25997;50.214;19.354;2023-03-01T13:51:21;19.60;;;16.77;;
40284;SDS011;25997;50.214;19.354;2023-03-01T13:54:29;22.10;;;18.63;;
40284;SDS011;25997;50.214;19.354;2023-03-01T13:57:34;22.92;;;16.73;;
40284;SDS011;25997;50.214;19.354;2023-03-01T14:00:39;21.60;;;19.30;;
40284;SDS011;25997;50.214;19.354;2023-03-01T14:03:42;16.63;;;14.15;;
40284;SDS011;25997;50.214;19.354;2023-03-01T14:06:45;16.92;;;14.45;;
40284;SDS011;25997;50.214;19.354;2023-03-01T14:09:51;17.90;;;15.88;;
40284;SDS011;25997;50.214;19.354;2023-03-01T14:12:58;16.45;;;13.43;;
40284;SDS011;25997;50.214;19.354;2023-03-01T14:16:15;16.50;;;14.55;;
40284;SDS011;25997;50.214;19.354;2023-03-01T14:19:29;16.85;;;15.05;;
40284;SDS011;25997;50.214;19.354;2023-03-01T14:22:33;15.93;;;13.13;;
40284;SDS011;25997;50.214;19.354;2023-03-01T14:25:45;20.13;;;16.08;;
40284;SDS011;25997;50.214;19.354;2023-03-01T14:28:50;19.35;;;15.98;;
40284;SDS011;25997;50.214;19.354;2023-03-01T14:31:53;18.77;;;14.85;;
40284;SDS011;25997;50.214;19.354;2023-03-01T14:34:56;18.83;;;13.90;;
40284;SDS011;25997;50.214;19.354;2023-03-01T14:38:00;16.15;;;14.40;;
40284;SDS011;25997;50.214;19.354;2023-03-01T14:41:05;13.52;;;12.00;;
40284;SDS011;25997;50.214;19.354;2023-03-01T14:44:12;16.92;;;13.23;;
40284;SDS011;25997;50.214;19.354;2023-03-01T14:47:21;15.10;;;13.23;;
40284;SDS011;25997;50.214;19.354;2023-03-01T14:50:29;14.50;;;12.88;;
40284;SDS011;25997;50.214;19.354;2023-03-01T14:53:33;14.65;;;12.80;;
40284;SDS011;25997;50.214;19.354;2023-03-01T14:56:44;14.75;;;12.68;;
40284;SDS011;25997;50.214;19.354;2023-03-01T14:59:48;15.55;;;12.88;;
40284;SDS011;25997;50.214;19.354;2023-03-01T15:02:54;14.63;;;13.05;;
40284;SDS011;25997;50.214;19.354;2023-03-01T15:05:58;16.05;;;14.23;;
40284;SDS011;25997;50.214;19.354;2023-03-01T15:09:03;16.13;;;14.43;;
40284;SDS011;25997;50.214;19.354;2023-03-01T15:15:36;16.17;;;13.05;;
40284;SDS011;25997;50.214;19.354;2023-03-01T15:18:43;18.52;;;14.20;;
40284;SDS011;25997;50.214;19.354;2023-03-01T15:21:47;19.90;;;13.95;;
40284;SDS011;25997;50.214;19.354;2023-03-01T15:24:51;17.25;;;14.05;;
40284;SDS011;25997;50.214;19.354;2023-03-01T15:27:56;16.77;;;13.63;;
40284;SDS011;25997;50.214;19.354;2023-03-01T15:31:03;21.17;;;17.40;;
40284;SDS011;25997;50.214;19.354;2023-03-01T15:34:21;28.75;;;24.67;;
40284;SDS011;25997;50.214;19.354;2023-03-01T15:40:51;16.63;;;14.93;;
40284;SDS011;25997;50.214;19.354;2023-03-01T15:43:56;18.52;;;15.32;;
40284;SDS011;25997;50.214;19.354;2023-03-01T15:47:00;19.67;;;15.80;;
40284;SDS011;25997;50.214;19.354;2023-03-01T15:50:03;20.00;;;15.75;;
40284;SDS011;25997;50.214;19.354;2023-03-01T15:53:09;19.23;;;16.98;;
40284;SDS011;25997;50.214;19.354;2023-03-01T15:56:14;18.85;;;16.85;;
40284;SDS011;25997;50.214;19.354;2023-03-01T15:59:18;26.63;;;22.50;;
40284;SDS011;25997;50.214;19.354;2023-03-01T16:02:23;29.58;;;26.17;;
40284;SDS011;25997;50.214;19.354;2023-03-01T16:05:26;49.63;;;40.10;;
40284;SDS011;25997;50.214;19.354;2023-03-01T16:08:31;46.05;;;35.83;;
40284;SDS011;25997;50.214;19.354;2023-03-01T16:11:34;59.55;;;45.03;;
40284;SDS011;25997;50.214;19.354;2023-03-01T16:14:41;68.25;;;49.78;;
40284;SDS011;25997;50.214;19.354;2023-03-01T16:17:44;64.40;;;49.05;;
40284;SDS011;25997;50.214;19.354;2023-03-01T16:20:55;50.10;;;38.42;;
40284;SDS011;25997;50.214;19.354;2023-03-01T16:23:58;40.90;;;27.88;;
40284;SDS011;25997;50.214;19.354;2023-03-01T16:27:00;45.08;;;25.65;;
40284;SDS011;25997;50.214;19.354;2023-03-01T16:30:06;38.17;;;25.63;;
40284;SDS011;25997;50.214;19.354;2023-03-01T16:33:09;27.92;;;21.50;;
40284;SDS011;25997;50.214;19.354;2023-03-01T16:36:12;36.65;;;26.30;;
40284;SDS011;25997;50.214;19.354;2023-03-01T16:39:14;37.75;;;24.88;;
40284;SDS011;25997;50.214;19.354;2023-03-01T16:42:17;32.65;;;21.58;;
40284;SDS011;25997;50.214;19.354;2023-03-01T16:45:21;25.17;;;17.70;;
40284;SDS011;25997;50.214;19.354;2023-03-01T16:48:23;18.73;;;13.48;;
40284;SDS011;25997;50.214;19.354;2023-03-01T16:51:26;19.95;;;12.10;;
40284;SDS011;25997;50.214;19.354;2023-03-01T16:54:30;21.05;;;12.75;;
40284;SDS011;25997;50.214;19.354;2023-03-01T16:57:33;17.02;;;12.60;;
40284;SDS011;25997;50.214;19.354;2023-03-01T17:00:37;15.20;;;11.77;;
40284;SDS011;25997;50.214;19.354;2023-03-01T17:03:40;17.27;;;12.68;;
40284;SDS011;25997;50.214;19.354;2023-03-01T17:06:43;24.42;;;15.98;;
40284;SDS011;25997;50.214;19.354;2023-03-01T17:09:47;40.88;;;28.73;;
40284;SDS011;25997;50.214;19.354;2023-03-01T17:12:50;60.65;;;45.20;;
40284;SDS011;25997;50.214;19.354;2023-03-01T17:15:54;43.97;;;32.60;;
40284;SDS011;25997;50.214;19.354;2023-03-01T17:18:57;31.77;;;24.88;;
40284;SDS011;25997;50.214;19.354;2023-03-01T17:21:59;29.02;;;20.85;;
40284;SDS011;25997;50.214;19.354;2023-03-01T17:25:02;23.75;;;17.10;;
40284;SDS011;25997;50.214;19.354;2023-03-01T17:28:05;60.25;;;43.58;;
40284;SDS011;25997;50.214;19.354;2023-03-01T17:31:09;29.55;;;22.15;;
40284;SDS011;25997;50.214;19.354;2023-03-01T17:34:11;22.25;;;16.00;;
40284;SDS011;25997;50.214;19.354;2023-03-01T17:37:15;21.85;;;16.23;;
40284;SDS011;25997;50.214;19.354;2023-03-01T17:40:18;24.15;;;16.58;;
40284;SDS011;25997;50.214;19.354;2023-03-01T17:43:20;23.00;;;16.58;;
40284;SDS011;25997;50.214;19.354;2023-03-01T17:46:24;22.48;;;15.32;;
40284;SDS011;25997;50.214;19.354;2023-03-01T17:49:27;24.35;;;16.38;;
40284;SDS011;25997;50.214;19.354;2023-03-01T17:52:30;22.83;;;15.50;;
40284;SDS011;25997;50.214;19.354;2023-03-01T17:55:32;27.35;;;18.33;;
40284;SDS011;25997;50.214;19.354;2023-03-01T17:58:35;23.08;;;18.65;;
40284;SDS011;25997;50.214;19.354;2023-03-01T18:01:41;33.25;;;21.15;;
40284;SDS011;25997;50.214;19.354;2023-03-01T18:04:44;200.90;;;123.50;;